createdAt,value
2018-04-24T00:00:05.247Z,2.50
2018-04-24T00:02:32.770Z,2.23
2018-04-24T00:05:00.277Z,2.20
2018-04-24T00:07:27.758Z,2.70
2018-04-24T00:09:55.318Z,2.30
2018-04-24T00:12:23.540Z,2.17
2018-04-24T00:14:51.065Z,2.17
2018-04-24T00:17:19.326Z,2.60
2018-04-24T00:19:46.854Z,2.60
2018-04-24T00:22:14.341Z,2.43
2018-04-24T00:24:41.883Z,2.63
2018-04-24T00:27:09.404Z,2.03
2018-04-24T00:29:37.007Z,2.60
2018-04-24T00:32:05.305Z,2.53
2018-04-24T00:34:33.563Z,2.20
2018-04-24T00:37:01.097Z,2.83
2018-04-24T00:39:28.581Z,2.50
2018-04-24T00:41:56.110Z,2.33
2018-04-24T00:44:24.377Z,2.87
2018-04-24T00:46:51.934Z,2.53
2018-04-24T00:49:19.410Z,3.10
2018-04-24T00:51:46.945Z,2.60
2018-04-24T00:54:14.442Z,2.60
2018-04-24T00:56:41.956Z,3.30
2018-04-24T00:59:09.482Z,2.63
2018-04-24T01:01:36.975Z,2.57
2018-04-24T01:04:04.474Z,3.03
2018-04-24T01:06:31.968Z,3.33
2018-04-24T01:08:59.480Z,2.93
2018-04-24T01:11:26.968Z,2.83
2018-04-24T01:13:55.225Z,3.77
2018-04-24T01:16:22.749Z,3.23
2018-04-24T01:18:50.234Z,3.30
2018-04-24T01:21:17.746Z,3.17
2018-04-24T01:23:45.236Z,2.67
2018-04-24T01:26:12.757Z,2.77
2018-04-24T01:28:40.253Z,3.07
2018-04-24T01:31:07.741Z,3.43
2018-04-24T01:33:35.267Z,3.30
2018-04-24T01:36:02.786Z,3.00
2018-04-24T01:38:30.290Z,3.23
2018-04-24T01:40:57.805Z,2.90
2018-04-24T01:43:25.290Z,3.03
2018-04-24T01:45:52.801Z,4.10
2018-04-24T01:48:20.297Z,3.47
2018-04-24T01:50:47.806Z,3.30
2018-04-24T01:53:15.273Z,3.77
2018-04-24T01:55:42.793Z,3.33
2018-04-24T01:58:10.270Z,3.30
2018-04-24T02:00:37.749Z,3.60
2018-04-24T02:03:05.265Z,4.00
2018-04-24T02:05:32.744Z,3.93
2018-04-24T02:08:00.261Z,4.13
2018-04-24T02:10:27.766Z,3.90
2018-04-24T02:12:55.309Z,4.10
2018-04-24T02:15:22.802Z,4.10
2018-04-24T02:17:50.338Z,3.90
2018-04-24T02:20:17.836Z,4.27
2018-04-24T02:22:45.362Z,3.90
2018-04-24T02:25:13.622Z,4.20
2018-04-24T02:27:41.117Z,4.43
2018-04-24T02:30:08.639Z,4.40
2018-04-24T02:32:36.126Z,4.80
2018-04-24T02:35:03.610Z,4.37
2018-04-24T02:37:31.141Z,4.50
2018-04-24T02:39:58.687Z,4.27
2018-04-24T02:42:26.175Z,3.97
2018-04-24T02:44:53.693Z,4.50
2018-04-24T02:47:21.177Z,4.20
2018-04-24T02:49:49.466Z,4.30
2018-04-24T02:52:16.961Z,4.47
2018-04-24T02:54:44.482Z,4.93
2018-04-24T02:57:11.973Z,4.60
2018-04-24T02:59:39.512Z,4.70
2018-04-24T03:02:07.001Z,4.33
2018-04-24T03:04:34.497Z,4.77
2018-04-24T03:07:02.030Z,4.27
2018-04-24T03:09:29.507Z,5.27
2018-04-24T03:11:57.048Z,5.50
2018-04-24T03:14:24.529Z,4.83
2018-04-24T03:16:52.061Z,4.90
2018-04-24T03:19:19.538Z,5.67
2018-04-24T03:21:47.833Z,5.33
2018-04-24T03:24:15.309Z,4.77
2018-04-24T03:26:42.809Z,4.60
2018-04-24T03:29:10.291Z,5.30
2018-04-24T03:31:37.780Z,6.03
2018-04-24T03:34:05.294Z,5.40
2018-04-24T03:36:32.774Z,5.67
2018-04-24T03:39:00.362Z,6.27
2018-04-24T03:41:27.801Z,5.87
2018-04-24T03:43:55.327Z,5.50
2018-04-24T03:46:22.805Z,5.53
2018-04-24T03:48:50.348Z,5.23
2018-04-24T03:51:17.826Z,6.97
2018-04-24T03:53:45.353Z,6.17
2018-04-24T03:56:12.842Z,6.23
2018-04-24T03:58:40.368Z,5.40
2018-04-24T04:01:07.863Z,6.60
2018-04-24T04:03:36.153Z,6.70
2018-04-24T04:06:04.403Z,6.67
2018-04-24T04:08:31.914Z,6.40
2018-04-24T04:11:00.158Z,7.20
2018-04-24T04:13:27.682Z,5.93
2018-04-24T04:15:55.227Z,6.63
2018-04-24T04:18:34.461Z,6.40
2018-04-24T04:21:13.705Z,6.40
2018-04-24T04:26:49.593Z,6.60
2018-04-24T04:29:17.166Z,6.40
2018-04-24T04:31:45.033Z,6.63
2018-04-24T04:34:12.518Z,6.97
2018-04-24T04:36:40.034Z,6.60
2018-04-24T04:39:07.557Z,6.73
2018-04-24T04:41:35.033Z,7.13
2018-04-24T04:44:02.510Z,6.87
2018-04-24T04:46:30.022Z,6.70
2018-04-24T04:48:59.147Z,7.13
2018-04-24T04:51:26.658Z,6.17
2018-04-24T04:53:54.142Z,5.77
2018-04-24T04:56:21.663Z,5.37
2018-04-24T04:58:49.144Z,6.20
2018-04-24T05:01:16.657Z,5.10
2018-04-24T05:03:44.161Z,5.40
2018-04-24T05:06:12.442Z,5.17
2018-04-24T05:08:39.928Z,4.60
2018-04-24T05:11:08.233Z,4.50
2018-04-24T05:13:35.706Z,4.77
2018-04-24T05:16:03.326Z,4.40
2018-04-24T05:18:30.814Z,4.27
2018-04-24T05:20:59.131Z,4.80
2018-04-24T05:23:26.657Z,4.37
2018-04-24T05:25:54.133Z,4.10
2018-04-24T05:28:21.649Z,4.30
2018-04-24T05:30:49.508Z,4.43
2018-04-24T05:33:17.105Z,4.50
2018-04-24T05:35:44.689Z,3.90
2018-04-24T05:38:12.138Z,3.53
2018-04-24T05:40:40.381Z,3.70
2018-04-24T05:43:07.896Z,3.60
2018-04-24T05:45:35.389Z,3.80
2018-04-24T05:48:02.898Z,3.50
2018-04-24T05:50:30.379Z,3.30
2018-04-24T05:52:57.991Z,3.73
2018-04-24T05:55:25.418Z,3.20
2018-04-24T05:57:52.950Z,3.60
2018-04-24T06:00:20.437Z,3.90
2018-04-24T06:02:47.921Z,3.47
2018-04-24T06:05:15.430Z,3.87
2018-04-24T06:07:42.912Z,4.53
2018-04-24T06:10:11.123Z,3.90
2018-04-24T06:12:38.606Z,3.50
2018-04-24T06:15:06.145Z,3.40
2018-04-24T06:17:34.373Z,3.23
2018-04-24T06:20:01.892Z,3.47
2018-04-24T06:22:30.193Z,3.43
2018-04-24T06:24:58.449Z,3.00
2018-04-24T06:27:25.925Z,3.20
2018-04-24T06:29:53.429Z,3.40
2018-04-24T06:32:20.911Z,2.90
2018-04-24T06:34:48.392Z,3.20
2018-04-24T06:37:15.914Z,3.07
2018-04-24T06:39:44.203Z,3.50
2018-04-24T06:42:11.703Z,2.60
2018-04-24T06:44:39.180Z,3.23
2018-04-24T06:47:06.714Z,3.10
2018-04-24T06:49:34.974Z,2.63
2018-04-24T06:52:02.482Z,2.70
2018-04-24T06:54:30.003Z,2.07
2018-04-24T06:56:57.513Z,2.47
2018-04-24T06:59:25.028Z,2.30
2018-04-24T07:01:52.552Z,1.70
2018-04-24T07:04:20.038Z,2.00
2018-04-24T07:06:48.316Z,2.33
2018-04-24T07:09:15.804Z,1.87
2018-04-24T07:11:44.091Z,2.20
2018-04-24T07:14:11.561Z,1.73
2018-04-24T07:16:39.842Z,1.80
2018-04-24T07:19:07.338Z,2.20
2018-04-24T07:21:34.849Z,2.30
2018-04-24T07:24:03.104Z,2.10
2018-04-24T07:26:30.641Z,2.03
2018-04-24T07:28:58.135Z,2.50
2018-04-24T07:31:26.393Z,2.67
2018-04-24T07:33:53.926Z,1.70
2018-04-24T07:36:21.401Z,2.30
2018-04-24T07:38:48.930Z,2.10
2018-04-24T07:41:17.171Z,2.07
2018-04-24T07:43:44.689Z,2.40
2018-04-24T07:46:12.949Z,1.90
2018-04-24T07:48:40.450Z,1.60
2018-04-24T07:51:08.684Z,2.20
2018-04-24T07:53:36.206Z,1.93
2018-04-24T07:56:03.685Z,2.13
2018-04-24T07:58:31.222Z,1.87
2018-04-24T08:00:58.699Z,1.50
2018-04-24T08:03:26.215Z,1.60
2018-04-24T08:05:53.703Z,1.40
2018-04-24T08:08:21.248Z,1.43
2018-04-24T08:10:49.502Z,1.03
2018-04-24T08:13:16.985Z,1.30
2018-04-24T08:15:44.498Z,1.30
2018-04-24T08:18:11.977Z,1.60
2018-04-24T08:20:39.501Z,1.30
2018-04-24T08:23:07.802Z,1.50
2018-04-24T08:25:35.330Z,1.60
2018-04-24T08:28:02.810Z,1.50
2018-04-24T08:30:30.305Z,1.30
2018-04-24T08:32:58.582Z,1.73
2018-04-24T08:35:26.093Z,1.90
2018-04-24T08:37:53.583Z,1.27
2018-04-24T08:40:21.110Z,1.77
2018-04-24T08:42:49.360Z,1.90
2018-04-24T08:45:16.872Z,1.57
2018-04-24T08:47:45.127Z,1.70
2018-04-24T08:50:12.641Z,1.37
2018-04-24T08:52:40.129Z,1.30
2018-04-24T08:55:07.650Z,1.43
2018-04-24T08:57:35.137Z,1.43
2018-04-24T09:00:02.610Z,1.90
2018-04-24T09:02:30.125Z,1.70
2018-04-24T09:04:57.597Z,1.93
2018-04-24T09:07:25.115Z,2.00
2018-04-24T09:09:52.625Z,1.73
2018-04-24T09:12:20.154Z,1.53
2018-04-24T09:14:47.637Z,1.40
2018-04-24T09:17:15.173Z,1.40
2018-04-24T09:19:42.653Z,1.40
2018-04-24T09:22:10.190Z,1.63
2018-04-24T09:24:37.695Z,1.30
2018-04-24T09:27:05.194Z,1.67
2018-04-24T09:29:32.715Z,1.37
2018-04-24T09:32:00.206Z,1.30
2018-04-24T09:34:27.699Z,1.67
2018-04-24T09:36:55.998Z,1.63
2018-04-24T09:39:23.467Z,2.57
2018-04-24T09:41:51.381Z,1.30
2018-04-24T09:44:18.898Z,1.77
2018-04-24T09:46:46.381Z,1.57
2018-04-24T09:49:13.907Z,1.70
2018-04-24T09:51:41.394Z,1.63
2018-04-24T09:54:08.953Z,1.80
2018-04-24T09:56:36.429Z,1.30
2018-04-24T09:59:03.945Z,1.53
2018-04-24T10:01:31.445Z,2.53
2018-04-24T10:03:58.966Z,1.67
2018-04-24T10:06:26.471Z,1.77
2018-04-24T10:08:54.751Z,2.17
2018-04-24T10:11:22.230Z,1.50
2018-04-24T10:13:49.883Z,1.63
2018-04-24T10:16:17.298Z,1.50
2018-04-24T10:18:44.810Z,1.60
2018-04-24T10:21:12.285Z,1.57
2018-04-24T10:23:39.798Z,1.40
2018-04-24T10:26:07.293Z,1.50
2018-04-24T10:28:34.793Z,2.00
2018-04-24T10:31:02.277Z,1.50
2018-04-24T10:33:29.824Z,2.00
2018-04-24T10:35:57.315Z,2.40
2018-04-24T10:38:24.830Z,1.50
2018-04-24T10:40:52.344Z,1.97
2018-04-24T10:43:19.825Z,1.67
2018-04-24T10:45:47.367Z,1.63
2018-04-24T10:48:14.843Z,2.33
2018-04-24T10:50:42.362Z,2.23
2018-04-24T10:53:09.862Z,1.90
2018-04-24T10:55:37.389Z,2.07
2018-04-24T10:58:04.869Z,2.30
2018-04-24T11:00:32.428Z,2.30
2018-04-24T11:02:59.883Z,1.83
2018-04-24T11:05:27.398Z,2.00
2018-04-24T11:07:55.643Z,1.87
2018-04-24T11:10:23.168Z,1.80
2018-04-24T11:12:50.659Z,1.53
2018-04-24T11:15:18.190Z,2.20
2018-04-24T11:17:45.689Z,1.50
2018-04-24T11:20:13.221Z,2.23
2018-04-24T11:22:40.707Z,2.53
2018-04-24T11:25:08.713Z,2.40
2018-04-24T11:27:36.225Z,2.73
2018-04-24T11:30:03.708Z,3.07
2018-04-24T11:32:31.301Z,3.13
2018-04-24T11:34:58.723Z,3.53
2018-04-24T11:37:26.241Z,2.53
2018-04-24T11:39:53.742Z,3.70
2018-04-24T11:42:21.262Z,3.47
2018-04-24T11:44:48.746Z,3.20
2018-04-24T11:47:16.274Z,3.20
2018-04-24T11:49:43.813Z,2.93
2018-04-24T11:52:11.293Z,3.40
2018-04-24T11:54:38.777Z,3.80
2018-04-24T11:57:06.313Z,2.50
2018-04-24T11:59:33.795Z,2.63
2018-04-24T12:02:02.092Z,3.90
2018-04-24T12:04:30.440Z,3.80
2018-04-24T12:06:57.974Z,3.50
2018-04-24T12:09:25.475Z,3.10
2018-04-24T12:11:52.960Z,4.30
2018-04-24T12:14:20.489Z,3.80
2018-04-24T12:16:47.973Z,3.30
2018-04-24T12:19:15.506Z,3.30
2018-04-24T12:21:43.753Z,3.10
2018-04-24T12:24:11.273Z,4.07
2018-04-24T12:26:39.534Z,3.90
2018-04-24T12:29:07.049Z,3.77
2018-04-24T12:31:34.546Z,4.20
2018-04-24T12:34:02.066Z,3.63
2018-04-24T12:36:30.321Z,4.17
2018-04-24T12:38:57.838Z,3.77
2018-04-24T12:41:26.086Z,5.00
2018-04-24T12:43:53.601Z,4.07
2018-04-24T12:46:21.839Z,3.90
2018-04-24T12:48:49.317Z,3.93
2018-04-24T12:51:16.828Z,4.70
2018-04-24T12:53:44.323Z,4.13
2018-04-24T12:56:11.859Z,5.30
2018-04-24T12:58:39.341Z,4.87
2018-04-24T13:01:06.853Z,5.50
2018-04-24T13:03:34.350Z,5.10
2018-04-24T13:06:01.862Z,6.23
2018-04-24T13:08:29.353Z,11.97
2018-04-24T13:10:56.866Z,11.37
2018-04-24T13:13:24.350Z,15.03
2018-04-24T13:15:51.869Z,4.10
2018-04-24T13:18:19.371Z,2.97
2018-04-24T13:20:46.883Z,3.27
2018-04-24T13:23:14.377Z,2.97
2018-04-24T13:25:41.913Z,2.87
2018-04-24T13:28:10.180Z,2.90
2018-04-24T13:30:37.680Z,2.70
2018-04-24T13:33:05.964Z,3.33
2018-04-24T13:35:34.222Z,3.63
2018-04-24T13:38:01.747Z,3.70
2018-04-24T13:40:29.239Z,4.87
2018-04-24T13:42:56.773Z,5.20
2018-04-24T13:45:24.265Z,5.23
2018-04-24T13:47:51.773Z,4.57
2018-04-24T13:50:19.268Z,4.63
2018-04-24T13:52:46.796Z,5.47
2018-04-24T13:55:14.321Z,5.13
2018-04-24T13:57:41.825Z,5.40
2018-04-24T14:00:09.321Z,5.00
2018-04-24T14:02:36.897Z,5.57
2018-04-24T14:05:04.386Z,4.90
2018-04-24T14:07:31.904Z,5.00
2018-04-24T14:09:59.397Z,4.60
2018-04-24T14:12:26.917Z,4.83
2018-04-24T14:14:54.470Z,4.40
2018-04-24T14:17:21.960Z,4.33
2018-04-24T14:19:49.511Z,4.10
2018-04-24T14:22:16.990Z,4.97
2018-04-24T14:24:44.554Z,4.57
2018-04-24T14:27:12.814Z,5.30
2018-04-24T14:29:40.318Z,4.70
2018-04-24T14:32:07.842Z,5.70
2018-04-24T14:34:35.370Z,5.23
2018-04-24T14:37:02.938Z,5.40
2018-04-24T14:39:31.150Z,4.67
2018-04-24T14:41:59.398Z,4.73
2018-04-24T14:44:26.931Z,5.83
2018-04-24T14:46:54.434Z,4.90
2018-04-24T14:49:21.930Z,5.30
2018-04-24T14:51:49.461Z,4.87
2018-04-24T14:54:17.753Z,5.53
2018-04-24T14:56:45.267Z,5.63
2018-04-24T14:59:12.761Z,5.77
2018-04-24T15:01:41.056Z,6.33
2018-04-24T15:04:09.345Z,6.43
2018-04-24T15:06:43.442Z,5.63
2018-04-24T15:09:10.953Z,6.80
2018-04-24T15:11:38.472Z,6.40
2018-04-24T15:14:05.950Z,5.57
2018-04-24T15:16:33.469Z,5.50
2018-04-24T15:19:00.968Z,6.00
2018-04-24T15:21:28.493Z,7.40
2018-04-24T15:23:56.745Z,5.87
2018-04-24T15:26:24.226Z,5.63
2018-04-24T15:28:51.753Z,6.00
2018-04-24T15:31:19.238Z,5.80
2018-04-24T15:33:46.767Z,5.67
2018-04-24T15:36:14.245Z,5.27
2018-04-24T15:38:41.769Z,5.63
2018-04-24T15:41:09.241Z,6.70
2018-04-24T15:43:36.756Z,5.03
2018-04-24T15:46:05.005Z,5.60
2018-04-24T15:48:32.529Z,5.77
2018-04-24T15:51:00.024Z,5.43
2018-04-24T15:53:27.549Z,5.60
2018-04-24T15:55:55.798Z,5.10
2018-04-24T15:58:23.313Z,5.77
2018-04-24T16:00:51.573Z,6.00
2018-04-24T16:03:19.103Z,6.10
2018-04-24T16:05:46.589Z,5.53
2018-04-24T16:08:14.111Z,5.80
2018-04-24T16:10:41.642Z,6.23
2018-04-24T16:13:09.163Z,5.93
2018-04-24T16:15:36.646Z,5.80
2018-04-24T16:18:04.182Z,5.50
2018-04-24T16:20:31.668Z,4.60
2018-04-24T16:22:59.142Z,5.83
2018-04-24T16:25:27.422Z,5.73
2018-04-24T16:27:54.905Z,6.20
2018-04-24T16:30:23.167Z,5.67
2018-04-24T16:32:50.645Z,5.40
2018-04-24T16:35:18.126Z,5.40
2018-04-24T16:37:45.650Z,6.00
2018-04-24T16:40:13.178Z,5.80
2018-04-24T16:42:40.661Z,5.23
2018-04-24T16:45:08.173Z,6.07
2018-04-24T16:47:35.667Z,5.93
2018-04-24T16:50:03.178Z,6.30
2018-04-24T16:52:30.661Z,5.57
2018-04-24T16:54:58.177Z,5.67
2018-04-24T16:57:25.671Z,6.67
2018-04-24T16:59:53.954Z,6.60
2018-04-24T17:02:21.436Z,6.53
2018-04-24T17:04:49.728Z,6.37
2018-04-24T17:07:17.975Z,7.03
2018-04-24T17:09:45.457Z,6.03
2018-04-24T17:12:12.965Z,7.27
2018-04-24T17:14:41.224Z,6.90
2018-04-24T17:17:08.750Z,7.17
2018-04-24T17:19:36.230Z,6.70
2018-04-24T17:22:03.738Z,6.60
2018-04-24T17:24:31.241Z,6.77
2018-04-24T17:26:58.761Z,6.80
2018-04-24T17:29:26.251Z,6.20
2018-04-24T17:31:53.766Z,5.90
2018-04-24T17:34:21.250Z,5.63
2018-04-24T17:36:48.763Z,5.20
2018-04-24T17:39:16.239Z,5.70
2018-04-24T17:41:43.748Z,5.50
2018-04-24T17:44:11.222Z,4.93
2018-04-24T17:46:38.750Z,6.07
2018-04-24T17:49:06.363Z,5.50
2018-04-24T17:51:33.846Z,5.20
2018-04-24T17:54:01.365Z,5.20
2018-04-24T17:56:28.845Z,4.87
2018-04-24T17:58:56.362Z,4.83
2018-04-24T18:01:23.846Z,4.50
2018-04-24T18:03:51.379Z,4.60
2018-04-24T18:06:19.634Z,5.70
2018-04-24T18:08:47.147Z,4.67
2018-04-24T18:11:14.656Z,4.87
2018-04-24T18:13:42.162Z,5.23
2018-04-24T18:16:09.649Z,5.50
2018-04-24T18:18:37.925Z,4.77
2018-04-24T18:21:05.422Z,4.63
2018-04-24T18:23:32.964Z,5.13
2018-04-24T18:26:00.444Z,4.43
2018-04-24T18:28:28.720Z,4.33
2018-04-24T18:30:56.209Z,4.63
2018-04-24T18:33:24.501Z,5.17
2018-04-24T18:35:52.754Z,5.33
2018-04-24T18:38:20.274Z,4.80
2018-04-24T18:40:47.765Z,6.17
2018-04-24T18:43:15.311Z,5.00
2018-04-24T18:45:43.565Z,5.70
2018-04-24T18:48:11.049Z,5.27
2018-04-24T18:50:38.573Z,5.50
2018-04-24T18:53:06.105Z,5.17
2018-04-24T18:55:33.576Z,6.17
2018-04-24T18:58:01.829Z,5.33
2018-04-24T19:00:29.337Z,5.80
2018-04-24T19:02:57.590Z,5.37
2018-04-24T19:05:25.107Z,5.60
2018-04-24T19:07:52.669Z,6.57
2018-04-24T19:10:20.113Z,5.70
2018-04-24T19:12:47.597Z,6.03
2018-04-24T19:15:15.121Z,7.10
2018-04-24T19:17:42.609Z,5.23
2018-04-24T19:20:10.118Z,4.80
2018-04-24T19:22:38.381Z,5.60
2018-04-24T19:25:11.601Z,5.90
2018-04-24T19:27:39.086Z,5.93
2018-04-24T19:30:07.352Z,5.73
2018-04-24T19:32:34.870Z,4.57
2018-04-24T19:35:02.381Z,5.00
2018-04-24T19:37:29.861Z,6.13
2018-04-24T19:43:06.249Z,5.50
2018-04-24T19:45:33.756Z,5.77
2018-04-24T19:48:01.304Z,6.30
2018-04-24T19:50:28.821Z,4.67
2018-04-24T19:52:57.069Z,5.53
2018-04-24T19:55:26.369Z,6.20
2018-04-24T19:57:53.853Z,6.80
2018-04-24T20:00:21.386Z,6.77
2018-04-24T20:02:48.874Z,6.10
2018-04-24T20:05:16.409Z,6.37
2018-04-24T20:07:44.659Z,6.83
2018-04-24T20:10:12.137Z,6.03
2018-04-24T20:12:39.693Z,6.60
2018-04-24T20:15:07.187Z,8.50
2018-04-24T20:17:34.744Z,6.20
2018-04-24T20:20:02.238Z,7.20
2018-04-24T20:22:29.753Z,6.60
2018-04-24T20:24:57.230Z,6.23
2018-04-24T20:27:24.738Z,6.53
2018-04-24T20:29:52.217Z,7.00
2018-04-24T20:32:19.788Z,6.73
2018-04-24T20:34:47.229Z,6.63
2018-04-24T20:37:14.749Z,6.93
2018-04-24T20:39:42.993Z,6.37
2018-04-24T20:42:10.506Z,6.77
2018-04-24T20:44:38.762Z,6.50
2018-04-24T20:47:06.245Z,6.97
2018-04-24T20:49:33.777Z,6.90
2018-04-24T20:52:01.269Z,5.97
2018-04-24T20:54:28.957Z,6.43
2018-04-24T20:56:56.457Z,7.17
2018-04-24T20:59:23.965Z,7.37
2018-04-24T21:01:51.460Z,6.33
2018-04-24T21:04:18.976Z,7.97
2018-04-24T21:06:47.224Z,7.20
2018-04-24T21:09:14.754Z,7.90
2018-04-24T21:11:42.245Z,7.30
2018-04-24T21:14:09.778Z,7.60
2018-04-24T21:16:38.024Z,8.27
2018-04-24T21:19:05.542Z,8.20
2018-04-24T21:21:33.049Z,7.30
2018-04-24T21:24:00.578Z,7.40
2018-04-24T21:26:28.071Z,8.20
2018-04-24T21:28:55.602Z,6.60
2018-04-24T21:31:23.105Z,7.63
2018-04-24T21:33:51.366Z,8.57
2018-04-24T21:36:18.885Z,7.70
2018-04-24T21:38:46.361Z,7.43
2018-04-24T21:41:13.937Z,8.33
2018-04-24T21:43:42.141Z,7.90
2018-04-24T21:46:09.652Z,8.10
2018-04-24T21:48:37.129Z,8.10
2018-04-24T21:51:05.417Z,7.80
2018-04-24T21:53:33.671Z,7.60
2018-04-24T21:56:01.190Z,7.30
2018-04-24T21:58:29.438Z,7.80
2018-04-24T22:00:56.993Z,7.83
2018-04-24T22:03:25.254Z,8.47
2018-04-24T22:05:52.783Z,7.50
2018-04-24T22:08:20.264Z,8.03
2018-04-24T22:10:47.778Z,7.43
2018-04-24T22:13:15.272Z,7.43
2018-04-24T22:15:42.795Z,6.93
2018-04-24T22:18:10.281Z,6.10
2018-04-24T22:20:37.766Z,6.50
2018-04-24T22:23:05.285Z,5.00
2018-04-24T22:25:32.768Z,4.97
2018-04-24T22:28:01.047Z,4.30
2018-04-24T22:30:28.593Z,5.10
2018-04-24T22:32:56.097Z,4.83
2018-04-24T22:35:23.584Z,4.10
2018-04-24T22:37:51.878Z,4.13
2018-04-24T22:40:19.353Z,4.00
2018-04-24T22:42:46.871Z,4.07
2018-04-24T22:45:14.356Z,3.97
2018-04-24T22:47:41.877Z,2.90
2018-04-24T22:50:09.365Z,3.73
2018-04-24T22:52:36.900Z,3.80
2018-04-24T22:55:04.378Z,3.20
2018-04-24T22:57:31.859Z,3.50
2018-04-24T22:59:59.381Z,3.03
2018-04-24T23:02:26.871Z,3.00
2018-04-24T23:04:54.382Z,3.37
2018-04-24T23:07:21.866Z,2.70
2018-04-24T23:09:55.568Z,3.60
2018-04-24T23:12:34.950Z,3.03
2018-04-24T23:15:14.245Z,3.40
2018-04-24T23:17:53.529Z,2.87
2018-04-24T23:20:20.555Z,3.07
2018-04-24T23:22:48.801Z,3.27
2018-04-24T23:25:17.049Z,3.03
2018-04-24T23:27:45.661Z,2.93
2018-04-24T23:30:13.147Z,3.03
2018-04-24T23:32:41.857Z,2.90
2018-04-24T23:35:09.334Z,3.00
2018-04-24T23:37:36.829Z,3.20
2018-04-24T23:40:05.082Z,2.97
2018-04-24T23:42:33.344Z,2.60
2018-04-24T23:45:00.827Z,3.00
2018-04-24T23:47:28.613Z,3.30
2018-04-24T23:49:56.089Z,2.80
2018-04-24T23:52:23.558Z,3.43
2018-04-24T23:54:51.073Z,2.50
2018-04-24T23:57:19.317Z,3.10
2018-04-24T23:59:46.814Z,3.10
